Pride of Baltimore II — WUW2120 — position and weather

sailwx.info

Track history (hours):
 
Tides and Currents Weather Stations Pressure Air Temp Water Temp Dewpoint Dewpoint Depression Visibility Wind Speed Wind Dir Waves Ship Positions

Pride of Baltimore II (United States)

Reproduction of an 1812-era Baltimore Clipper privateer.

Ship's website: http://www.pride2.org/

Owner: PRIDE OF BALTIMORE INC, BALTIMORE, MD. More information available from US FCC via Universal Licensing System and Coast Guard Vessel Documentation Center.

Last reported at 2016-Aug-23 18:00 UTC. Time now 2016-Aug-30 15:05 UTC.
Position N 47°00' W 087°30'.

Type: Sailing vessel. MMSI: 303302000.

Wind from 130 at 13 knots

Waves 0.5 meters (2 feet), 1 second period

Barometer 1013.6 mb
Air temperature 23.0 ° C
Visibility: greater than 10.8 NM
Dewpoint 18.9 ° C
Water temperature 19.6 ° C

Date/timePositionNaut miles runAvg speedWind from/ knotsBaromVisibWave heightAir tempDewpointWater temp
2016-Aug-23 18:00N 47°00' W 087°30'131 7.3 130 / 131013.610.8 0.523.018.919.6
2016-Aug-23 00:00N 47°06' W 090°42'48 8.9 210 / 141009.2 5.4 0.526.826.720.5
2016-Aug-22 18:33N 46°50' W 091°49'7 6.9
2016-Aug-22 17:33N 46°48' W 091°58'3 3.4
2016-Aug-22 16:33N 46°47' W 092°03'1 1.4
2016-Aug-22 15:33N 46°47' W 092°05'1 0.6
2016-Aug-22 14:25N 46°47' W 092°06'0 0.0
2016-Aug-22 13:31N 46°47' W 092°06'0 0.0
2016-Aug-22 12:31N 46°47' W 092°06'0 0.0
2016-Aug-22 11:31N 46°47' W 092°06'0 0.0
2016-Aug-22 10:31N 46°47' W 092°06'0 0.0
2016-Aug-22 09:31N 46°47' W 092°06'0 0.0
2016-Aug-22 08:28N 46°47' W 092°06'0 0.0
2016-Aug-22 07:28N 46°47' W 092°06'0 0.0
2016-Aug-22 06:31N 46°47' W 092°06'0 0.0
2016-Aug-22 05:19N 46°47' W 092°06'0 0.0
2016-Aug-22 04:22N 46°47' W 092°06'0 0.0
2016-Aug-22 03:31N 46°47' W 092°06'0 0.0
2016-Aug-22 02:31N 46°47' W 092°06'0 0.0
2016-Aug-22 01:22N 46°47' W 092°06'0 0.0
2016-Aug-22 00:22N 46°47' W 092°06'0 0.0
2016-Aug-21 23:34N 46°47' W 092°06'0 0.0
2016-Aug-21 22:33N 46°47' W 092°06'0 0.2
2016-Aug-21 21:33N 46°47' W 092°06'0 0.2
2016-Aug-21 20:33N 46°47' W 092°06'1 1.1
2016-Aug-21 19:34N 46°46' W 092°06'1 1.1
2016-Aug-21 18:34N 46°47' W 092°06'1 1.2
2016-Aug-21 17:33N 46°47' W 092°04'1 1.2
2016-Aug-21 16:33N 46°47' W 092°06'1 1.5
2016-Aug-21 15:34N 46°47' W 092°04'1 1.4
2016-Aug-21 14:28N 46°47' W 092°06'0 0.0
2016-Aug-21 13:28N 46°47' W 092°06'0 0.0
2016-Aug-21 12:28N 46°47' W 092°06'0 0.0
2016-Aug-21 11:31N 46°47' W 092°06'0 0.0
2016-Aug-21 10:31N 46°47' W 092°06'0 0.0
2016-Aug-21 09:31N 46°47' W 092°06'0 0.0
2016-Aug-21 08:31N 46°47' W 092°06'0 0.0
2016-Aug-21 07:31N 46°47' W 092°06'0 0.0
2016-Aug-21 06:31N 46°47' W 092°06'0 0.0
2016-Aug-21 05:28N 46°47' W 092°06'0 0.0
2016-Aug-21 04:31N 46°47' W 092°06'0 0.0
2016-Aug-21 03:31N 46°47' W 092°06'0 0.0
2016-Aug-21 02:31N 46°47' W 092°06'0 0.0
2016-Aug-21 01:31N 46°47' W 092°06'0 0.0
2016-Aug-21 00:31N 46°47' W 092°06'0 0.0
2016-Aug-20 23:22N 46°47' W 092°06'0 0.0
2016-Aug-20 22:22N 46°47' W 092°06'1 1.7
2016-Aug-20 21:32N 46°46' W 092°04'1 1.4
2016-Aug-20 20:28N 46°47' W 092°06'0 0.3
2016-Aug-20 19:33N 46°47' W 092°06'0 0.2
2016-Aug-20 18:30N 46°47' W 092°06'0 0.1
2016-Aug-20 17:33N 46°47' W 092°06'0 0.1
2016-Aug-20 16:29N 46°47' W 092°06'1 1.2
2016-Aug-20 15:33N 46°46' W 092°06'1 1.0
2016-Aug-20 14:29N 46°47' W 092°06'0 0.0
2016-Aug-20 13:29N 46°47' W 092°06'0 0.0
2016-Aug-20 12:29N 46°47' W 092°06'0 0.0
2016-Aug-20 11:26N 46°47' W 092°06'0 0.0
2016-Aug-20 10:26N 46°47' W 092°06'0 0.0
2016-Aug-20 09:32N 46°47' W 092°06'0 0.0
2016-Aug-20 08:32N 46°47' W 092°06'0 0.0
2016-Aug-20 07:32N 46°47' W 092°06'0 0.0
2016-Aug-20 06:32N 46°47' W 092°06'0 0.0
2016-Aug-20 05:29N 46°47' W 092°06'0 0.0
2016-Aug-20 04:32N 46°47' W 092°06'0 0.0
2016-Aug-20 03:29N 46°47' W 092°06'0 0.0
2016-Aug-20 02:32N 46°47' W 092°06'0 0.0
2016-Aug-20 01:32N 46°47' W 092°06'0 0.0
2016-Aug-20 00:32N 46°47' W 092°06'0 0.0
2016-Aug-19 23:32N 46°47' W 092°06'0 0.1
2016-Aug-19 22:33N 46°47' W 092°06'0 0.1
2016-Aug-19 21:33N 46°47' W 092°06'0 0.2
2016-Aug-19 20:33N 46°47' W 092°06'1 1.1
2016-Aug-19 19:33N 46°46' W 092°05'1 1.1
2016-Aug-19 18:33N 46°47' W 092°06'1 0.5
2016-Aug-19 17:33N 46°46' W 092°06'1 0.5
2016-Aug-19 16:33N 46°47' W 092°06'1 0.5
2016-Aug-19 15:33N 46°46' W 092°06'1 0.5
2016-Aug-19 14:26N 46°47' W 092°06'0 0.0
2016-Aug-19 13:29N 46°47' W 092°06'0 0.0
2016-Aug-19 12:29N 46°47' W 092°06'0 0.0
2016-Aug-19 11:29N 46°47' W 092°06'0 0.0
2016-Aug-19 10:29N 46°47' W 092°06'0 0.0
2016-Aug-19 09:32N 46°47' W 092°06'0 0.0
2016-Aug-19 08:32N 46°47' W 092°06'0 0.0
2016-Aug-19 07:32N 46°47' W 092°06'0 0.0
2016-Aug-19 06:32N 46°47' W 092°06'0 0.0
2016-Aug-19 05:32N 46°47' W 092°06'0 0.0
2016-Aug-19 04:20N 46°47' W 092°06'0 0.0
2016-Aug-19 03:29N 46°47' W 092°06'0 0.0
2016-Aug-19 02:32N 46°47' W 092°06'0 0.0
2016-Aug-19 01:32N 46°47' W 092°06'0 0.0
2016-Aug-19 00:32N 46°47' W 092°06'1 1.3
2016-Aug-18 23:33N 46°46' W 092°06'1 1.1
2016-Aug-18 22:26N 46°47' W 092°06'1 0.6
2016-Aug-18 21:34N 46°46' W 092°06'1 0.4
2016-Aug-18 20:08N 46°47' W 092°06'0 0.0
2016-Aug-18 19:23N 46°47' W 092°06'0 0.6
2016-Aug-18 18:31N 46°46' W 092°06'1 1.4
2016-Aug-18 17:29N 46°47' W 092°04'1 1.3
2016-Aug-18 16:32N 46°47' W 092°06'0 0.0
2016-Aug-18 15:32N 46°47' W 092°06'0 0.0
2016-Aug-18 14:32N 46°47' W 092°06'3 2.9
2016-Aug-18 13:33N 46°44' W 092°05'3 2.7
2016-Aug-18 12:32N 46°42' W 092°02'0 0.0
2016-Aug-18 11:20N 46°42' W 092°02'0 0.0
2016-Aug-18 10:32N 46°42' W 092°02'0 0.0
2016-Aug-18 09:32N 46°42' W 092°02'0 0.0
2016-Aug-18 08:23N 46°42' W 092°02'0 0.0
2016-Aug-18 07:23N 46°42' W 092°02'0 0.0
2016-Aug-18 06:23N 46°42' W 092°02'0 0.0
2016-Aug-18 05:26N 46°42' W 092°02'0 0.0
2016-Aug-18 04:23N 46°42' W 092°02'0 0.0
2016-Aug-18 03:23N 46°42' W 092°02'0 0.0
2016-Aug-18 02:26N 46°42' W 092°02'0 0.0
2016-Aug-18 01:29N 46°42' W 092°02'0 0.0
2016-Aug-18 00:29N 46°42' W 092°02'0 0.0
2016-Aug-17 23:29N 46°42' W 092°02'0 0.0
2016-Aug-17 22:29N 46°42' W 092°02'0 0.0
2016-Aug-17 21:29N 46°42' W 092°02'0 0.0
2016-Aug-17 20:32N 46°42' W 092°02'0 0.0
2016-Aug-17 19:32N 46°42' W 092°02'0 0.0
2016-Aug-17 18:32N 46°42' W 092°02'0 0.0
2016-Aug-17 17:32N 46°42' W 092°02'0 0.0
2016-Aug-17 16:29N 46°42' W 092°02'0 0.0
2016-Aug-17 15:32N 46°42' W 092°02'0 0.0
2016-Aug-17 14:29N 46°42' W 092°02'0 0.0
2016-Aug-17 13:32N 46°42' W 092°02'0 0.0
2016-Aug-17 12:20N 46°42' W 092°02'0 0.0
2016-Aug-17 11:31N 46°42' W 092°02'0 0.0
2016-Aug-17 10:31N 46°42' W 092°02'0 0.0
2016-Aug-17 09:31N 46°42' W 092°02'0 0.0
2016-Aug-17 08:22N 46°42' W 092°02'0 0.0
2016-Aug-17 07:22N 46°42' W 092°02'0 0.0
2016-Aug-17 06:19N 46°42' W 092°02'0 0.0
2016-Aug-17 05:25N 46°42' W 092°02'0 0.0
2016-Aug-17 04:25N 46°42' W 092°02'0 0.0
2016-Aug-17 03:25N 46°42' W 092°02'0 0.0
2016-Aug-17 02:25N 46°42' W 092°02'0 0.0
2016-Aug-17 01:28N 46°42' W 092°02'0 0.0
2016-Aug-17 00:28N 46°42' W 092°02'0 0.0
2016-Aug-16 23:28N 46°42' W 092°02'0 0.0
2016-Aug-16 22:28N 46°42' W 092°02'0 0.0
2016-Aug-16 21:28N 46°42' W 092°02'0 0.0
2016-Aug-16 20:31N 46°42' W 092°02'0 0.0
2016-Aug-16 19:31N 46°42' W 092°02'0 0.0
2016-Aug-16 18:28N 46°42' W 092°02'0 0.0
2016-Aug-16 17:31N 46°42' W 092°02'0 0.0
2016-Aug-16 16:31N 46°42' W 092°02'0 0.0
2016-Aug-16 15:31N 46°42' W 092°02'0 0.0
2016-Aug-16 14:31N 46°42' W 092°02'0 0.0
2016-Aug-16 13:31N 46°42' W 092°02'0 0.0
2016-Aug-16 12:31N 46°42' W 092°02'0 0.0
2016-Aug-16 11:31N 46°42' W 092°02'0 0.0
2016-Aug-16 10:31N 46°42' W 092°02'0 0.0
2016-Aug-16 09:31N 46°42' W 092°02'0 0.0
2016-Aug-16 08:22N 46°42' W 092°02'0 0.0
2016-Aug-16 07:22N 46°42' W 092°02'0 0.0
2016-Aug-16 04:25N 46°42' W 092°02'0 0.0
2016-Aug-16 03:25N 46°42' W 092°02'0 0.0
2016-Aug-16 02:25N 46°42' W 092°02'0 0.0
2016-Aug-16 01:28N 46°42' W 092°02'0 0.0
2016-Aug-16 00:28N 46°42' W 092°02'0 0.0
2016-Aug-15 23:25N 46°42' W 092°02'2 2.0
2016-Aug-15 22:33N 46°43' W 091°60'7 7.2
2016-Aug-15 21:33N 46°46' W 091°50'52 5.1
2016-Aug-15 11:22N 47°03' W 090°39'0 0.0
2016-Aug-15 10:16N 47°03' W 090°39'0 0.0
2016-Aug-15 09:28N 47°03' W 090°39'0 0.0
2016-Aug-15 07:19N 47°03' W 090°39'10 0.7
2016-Aug-14 17:14N 46°53' W 090°40'3 3.1
2016-Aug-14 16:22N 46°51' W 090°43'3 3.2
2016-Aug-14 15:33N 46°49' W 090°46'2 2.5
2016-Aug-14 14:33N 46°47' W 090°48'1 0.7
2016-Aug-14 13:33N 46°47' W 090°47'0 0.0
2016-Aug-14 12:33N 46°47' W 090°47'0 0.0
2016-Aug-14 11:34N 46°47' W 090°47'0 0.0
2016-Aug-14 10:33N 46°47' W 090°47'0 0.0
2016-Aug-14 09:33N 46°47' W 090°47'0 0.0
2016-Aug-14 08:33N 46°47' W 090°47'0 0.0
2016-Aug-14 07:33N 46°47' W 090°47'0 0.0
2016-Aug-14 06:33N 46°47' W 090°47'0 0.0
2016-Aug-14 04:34N 46°47' W 090°47'0 0.0
2016-Aug-14 03:33N 46°47' W 090°47'0 0.0
2016-Aug-14 02:33N 46°47' W 090°47'0 0.0
2016-Aug-14 01:33N 46°47' W 090°47'0 0.0
2016-Aug-14 00:33N 46°47' W 090°47'0 0.0
2016-Aug-13 23:33N 46°47' W 090°47'0 0.0
2016-Aug-13 22:33N 46°47' W 090°47'0 0.0
2016-Aug-13 21:33N 46°47' W 090°47'0 0.0
2016-Aug-13 20:34N 46°47' W 090°47'0 0.0
2016-Aug-13 19:33N 46°47' W 090°47'0 0.0
2016-Aug-13 18:33N 46°47' W 090°47'  
Track history (hours):
 
Tides and Currents Weather Stations Pressure Air Temp Water Temp Dewpoint Dewpoint Depression Visibility Wind Speed Wind Dir Waves Ship Positions

Pride of Baltimore II (United States)

Reproduction of an 1812-era Baltimore Clipper privateer.

Ship's website: http://www.pride2.org/

Owner: PRIDE OF BALTIMORE INC, BALTIMORE, MD. More information available from US FCC via Universal Licensing System and Coast Guard Vessel Documentation Center.

Last reported at 2016-Aug-23 18:00 UTC. Time now 2016-Aug-30 15:05 UTC.
Position N 47°00' W 087°30'.

Type: Sailing vessel. MMSI: 303302000.

Wind from 130 at 13 knots

Waves 0.5 meters (2 feet), 1 second period

Barometer 1013.6 mb
Air temperature 23.0 ° C
Visibility: greater than 10.8 NM
Dewpoint 18.9 ° C
Water temperature 19.6 ° C

Date/timePositionNaut miles runAvg speedWind from/ knotsBaromVisibWave heightAir tempDewpointWater temp
2016-Aug-23 18:00N 47°00' W 087°30'131 7.3 130 / 131013.610.8 0.523.018.919.6
2016-Aug-23 00:00N 47°06' W 090°42'48 8.9 210 / 141009.2 5.4 0.526.826.720.5
2016-Aug-22 18:33N 46°50' W 091°49'7 6.9
2016-Aug-22 17:33N 46°48' W 091°58'3 3.4
2016-Aug-22 16:33N 46°47' W 092°03'1 1.4
2016-Aug-22 15:33N 46°47' W 092°05'1 0.6
2016-Aug-22 14:25N 46°47' W 092°06'0 0.0
2016-Aug-22 13:31N 46°47' W 092°06'0 0.0
2016-Aug-22 12:31N 46°47' W 092°06'0 0.0
2016-Aug-22 11:31N 46°47' W 092°06'0 0.0
2016-Aug-22 10:31N 46°47' W 092°06'0 0.0
2016-Aug-22 09:31N 46°47' W 092°06'0 0.0
2016-Aug-22 08:28N 46°47' W 092°06'0 0.0
2016-Aug-22 07:28N 46°47' W 092°06'0 0.0
2016-Aug-22 06:31N 46°47' W 092°06'0 0.0
2016-Aug-22 05:19N 46°47' W 092°06'0 0.0
2016-Aug-22 04:22N 46°47' W 092°06'0 0.0
2016-Aug-22 03:31N 46°47' W 092°06'0 0.0
2016-Aug-22 02:31N 46°47' W 092°06'0 0.0
2016-Aug-22 01:22N 46°47' W 092°06'0 0.0
2016-Aug-22 00:22N 46°47' W 092°06'0 0.0
2016-Aug-21 23:34N 46°47' W 092°06'0 0.0
2016-Aug-21 22:33N 46°47' W 092°06'0 0.2
2016-Aug-21 21:33N 46°47' W 092°06'0 0.2
2016-Aug-21 20:33N 46°47' W 092°06'1 1.1
2016-Aug-21 19:34N 46°46' W 092°06'1 1.1
2016-Aug-21 18:34N 46°47' W 092°06'1 1.2
2016-Aug-21 17:33N 46°47' W 092°04'1 1.2
2016-Aug-21 16:33N 46°47' W 092°06'1 1.5
2016-Aug-21 15:34N 46°47' W 092°04'1 1.4
2016-Aug-21 14:28N 46°47' W 092°06'0 0.0
2016-Aug-21 13:28N 46°47' W 092°06'0 0.0
2016-Aug-21 12:28N 46°47' W 092°06'0 0.0
2016-Aug-21 11:31N 46°47' W 092°06'0 0.0
2016-Aug-21 10:31N 46°47' W 092°06'0 0.0
2016-Aug-21 09:31N 46°47' W 092°06'0 0.0
2016-Aug-21 08:31N 46°47' W 092°06'0 0.0
2016-Aug-21 07:31N 46°47' W 092°06'0 0.0
2016-Aug-21 06:31N 46°47' W 092°06'0 0.0
2016-Aug-21 05:28N 46°47' W 092°06'0 0.0
2016-Aug-21 04:31N 46°47' W 092°06'0 0.0
2016-Aug-21 03:31N 46°47' W 092°06'0 0.0
2016-Aug-21 02:31N 46°47' W 092°06'0 0.0
2016-Aug-21 01:31N 46°47' W 092°06'0 0.0
2016-Aug-21 00:31N 46°47' W 092°06'0 0.0
2016-Aug-20 23:22N 46°47' W 092°06'0 0.0
2016-Aug-20 22:22N 46°47' W 092°06'1 1.7
2016-Aug-20 21:32N 46°46' W 092°04'1 1.4
2016-Aug-20 20:28N 46°47' W 092°06'0 0.3
2016-Aug-20 19:33N 46°47' W 092°06'0 0.2
2016-Aug-20 18:30N 46°47' W 092°06'0 0.1
2016-Aug-20 17:33N 46°47' W 092°06'0 0.1
2016-Aug-20 16:29N 46°47' W 092°06'1 1.2
2016-Aug-20 15:33N 46°46' W 092°06'1 1.0
2016-Aug-20 14:29N 46°47' W 092°06'0 0.0
2016-Aug-20 13:29N 46°47' W 092°06'0 0.0
2016-Aug-20 12:29N 46°47' W 092°06'0 0.0
2016-Aug-20 11:26N 46°47' W 092°06'0 0.0
2016-Aug-20 10:26N 46°47' W 092°06'0 0.0
2016-Aug-20 09:32N 46°47' W 092°06'0 0.0
2016-Aug-20 08:32N 46°47' W 092°06'0 0.0
2016-Aug-20 07:32N 46°47' W 092°06'0 0.0
2016-Aug-20 06:32N 46°47' W 092°06'0 0.0
2016-Aug-20 05:29N 46°47' W 092°06'0 0.0
2016-Aug-20 04:32N 46°47' W 092°06'0 0.0
2016-Aug-20 03:29N 46°47' W 092°06'0 0.0
2016-Aug-20 02:32N 46°47' W 092°06'0 0.0
2016-Aug-20 01:32N 46°47' W 092°06'0 0.0
2016-Aug-20 00:32N 46°47' W 092°06'0 0.0
2016-Aug-19 23:32N 46°47' W 092°06'0 0.1
2016-Aug-19 22:33N 46°47' W 092°06'0 0.1
2016-Aug-19 21:33N 46°47' W 092°06'0 0.2
2016-Aug-19 20:33N 46°47' W 092°06'1 1.1
2016-Aug-19 19:33N 46°46' W 092°05'1 1.1
2016-Aug-19 18:33N 46°47' W 092°06'1 0.5
2016-Aug-19 17:33N 46°46' W 092°06'1 0.5
2016-Aug-19 16:33N 46°47' W 092°06'1 0.5
2016-Aug-19 15:33N 46°46' W 092°06'1 0.5
2016-Aug-19 14:26N 46°47' W 092°06'0 0.0
2016-Aug-19 13:29N 46°47' W 092°06'0 0.0
2016-Aug-19 12:29N 46°47' W 092°06'0 0.0
2016-Aug-19 11:29N 46°47' W 092°06'0 0.0
2016-Aug-19 10:29N 46°47' W 092°06'0 0.0
2016-Aug-19 09:32N 46°47' W 092°06'0 0.0
2016-Aug-19 08:32N 46°47' W 092°06'0 0.0
2016-Aug-19 07:32N 46°47' W 092°06'0 0.0
2016-Aug-19 06:32N 46°47' W 092°06'0 0.0
2016-Aug-19 05:32N 46°47' W 092°06'0 0.0
2016-Aug-19 04:20N 46°47' W 092°06'0 0.0
2016-Aug-19 03:29N 46°47' W 092°06'0 0.0
2016-Aug-19 02:32N 46°47' W 092°06'0 0.0
2016-Aug-19 01:32N 46°47' W 092°06'0 0.0
2016-Aug-19 00:32N 46°47' W 092°06'1 1.3
2016-Aug-18 23:33N 46°46' W 092°06'1 1.1
2016-Aug-18 22:26N 46°47' W 092°06'1 0.6
2016-Aug-18 21:34N 46°46' W 092°06'1 0.4
2016-Aug-18 20:08N 46°47' W 092°06'0 0.0
2016-Aug-18 19:23N 46°47' W 092°06'0 0.6
2016-Aug-18 18:31N 46°46' W 092°06'1 1.4
2016-Aug-18 17:29N 46°47' W 092°04'1 1.3
2016-Aug-18 16:32N 46°47' W 092°06'0 0.0
2016-Aug-18 15:32N 46°47' W 092°06'0 0.0
2016-Aug-18 14:32N 46°47' W 092°06'3 2.9
2016-Aug-18 13:33N 46°44' W 092°05'3 2.7
2016-Aug-18 12:32N 46°42' W 092°02'0 0.0
2016-Aug-18 11:20N 46°42' W 092°02'0 0.0
2016-Aug-18 10:32N 46°42' W 092°02'0 0.0
2016-Aug-18 09:32N 46°42' W 092°02'0 0.0
2016-Aug-18 08:23N 46°42' W 092°02'0 0.0
2016-Aug-18 07:23N 46°42' W 092°02'0 0.0
2016-Aug-18 06:23N 46°42' W 092°02'0 0.0
2016-Aug-18 05:26N 46°42' W 092°02'0 0.0
2016-Aug-18 04:23N 46°42' W 092°02'0 0.0
2016-Aug-18 03:23N 46°42' W 092°02'0 0.0
2016-Aug-18 02:26N 46°42' W 092°02'0 0.0
2016-Aug-18 01:29N 46°42' W 092°02'0 0.0
2016-Aug-18 00:29N 46°42' W 092°02'0 0.0
2016-Aug-17 23:29N 46°42' W 092°02'0 0.0
2016-Aug-17 22:29N 46°42' W 092°02'0 0.0
2016-Aug-17 21:29N 46°42' W 092°02'0 0.0
2016-Aug-17 20:32N 46°42' W 092°02'0 0.0
2016-Aug-17 19:32N 46°42' W 092°02'0 0.0
2016-Aug-17 18:32N 46°42' W 092°02'0 0.0
2016-Aug-17 17:32N 46°42' W 092°02'0 0.0
2016-Aug-17 16:29N 46°42' W 092°02'0 0.0
2016-Aug-17 15:32N 46°42' W 092°02'0 0.0
2016-Aug-17 14:29N 46°42' W 092°02'0 0.0
2016-Aug-17 13:32N 46°42' W 092°02'0 0.0
2016-Aug-17 12:20N 46°42' W 092°02'0 0.0
2016-Aug-17 11:31N 46°42' W 092°02'0 0.0
2016-Aug-17 10:31N 46°42' W 092°02'0 0.0
2016-Aug-17 09:31N 46°42' W 092°02'0 0.0
2016-Aug-17 08:22N 46°42' W 092°02'0 0.0
2016-Aug-17 07:22N 46°42' W 092°02'0 0.0
2016-Aug-17 06:19N 46°42' W 092°02'0 0.0
2016-Aug-17 05:25N 46°42' W 092°02'0 0.0
2016-Aug-17 04:25N 46°42' W 092°02'0 0.0
2016-Aug-17 03:25N 46°42' W 092°02'0 0.0
2016-Aug-17 02:25N 46°42' W 092°02'0 0.0
2016-Aug-17 01:28N 46°42' W 092°02'0 0.0
2016-Aug-17 00:28N 46°42' W 092°02'0 0.0
2016-Aug-16 23:28N 46°42' W 092°02'0 0.0
2016-Aug-16 22:28N 46°42' W 092°02'0 0.0
2016-Aug-16 21:28N 46°42' W 092°02'0 0.0
2016-Aug-16 20:31N 46°42' W 092°02'0 0.0
2016-Aug-16 19:31N 46°42' W 092°02'0 0.0
2016-Aug-16 18:28N 46°42' W 092°02'0 0.0
2016-Aug-16 17:31N 46°42' W 092°02'0 0.0
2016-Aug-16 16:31N 46°42' W 092°02'0 0.0
2016-Aug-16 15:31N 46°42' W 092°02'0 0.0
2016-Aug-16 14:31N 46°42' W 092°02'0 0.0
2016-Aug-16 13:31N 46°42' W 092°02'0 0.0
2016-Aug-16 12:31N 46°42' W 092°02'0 0.0
2016-Aug-16 11:31N 46°42' W 092°02'0 0.0
2016-Aug-16 10:31N 46°42' W 092°02'0 0.0
2016-Aug-16 09:31N 46°42' W 092°02'0 0.0
2016-Aug-16 08:22N 46°42' W 092°02'0 0.0
2016-Aug-16 07:22N 46°42' W 092°02'0 0.0
2016-Aug-16 04:25N 46°42' W 092°02'0 0.0
2016-Aug-16 03:25N 46°42' W 092°02'0 0.0
2016-Aug-16 02:25N 46°42' W 092°02'0 0.0
2016-Aug-16 01:28N 46°42' W 092°02'0 0.0
2016-Aug-16 00:28N 46°42' W 092°02'0 0.0
2016-Aug-15 23:25N 46°42' W 092°02'2 2.0
2016-Aug-15 22:33N 46°43' W 091°60'7 7.2
2016-Aug-15 21:33N 46°46' W 091°50'52 5.1
2016-Aug-15 11:22N 47°03' W 090°39'0 0.0
2016-Aug-15 10:16N 47°03' W 090°39'0 0.0
2016-Aug-15 09:28N 47°03' W 090°39'0 0.0
2016-Aug-15 07:19N 47°03' W 090°39'10 0.7
2016-Aug-14 17:14N 46°53' W 090°40'3 3.1
2016-Aug-14 16:22N 46°51' W 090°43'3 3.2
2016-Aug-14 15:33N 46°49' W 090°46'2 2.5
2016-Aug-14 14:33N 46°47' W 090°48'1 0.7
2016-Aug-14 13:33N 46°47' W 090°47'0 0.0
2016-Aug-14 12:33N 46°47' W 090°47'0 0.0
2016-Aug-14 11:34N 46°47' W 090°47'0 0.0
2016-Aug-14 10:33N 46°47' W 090°47'0 0.0
2016-Aug-14 09:33N 46°47' W 090°47'0 0.0
2016-Aug-14 08:33N 46°47' W 090°47'0 0.0
2016-Aug-14 07:33N 46°47' W 090°47'0 0.0
2016-Aug-14 06:33N 46°47' W 090°47'0 0.0
2016-Aug-14 04:34N 46°47' W 090°47'0 0.0
2016-Aug-14 03:33N 46°47' W 090°47'0 0.0
2016-Aug-14 02:33N 46°47' W 090°47'0 0.0
2016-Aug-14 01:33N 46°47' W 090°47'0 0.0
2016-Aug-14 00:33N 46°47' W 090°47'0 0.0
2016-Aug-13 23:33N 46°47' W 090°47'0 0.0
2016-Aug-13 22:33N 46°47' W 090°47'0 0.0
2016-Aug-13 21:33N 46°47' W 090°47'0 0.0
2016-Aug-13 20:34N 46°47' W 090°47'0 0.0
2016-Aug-13 19:33N 46°47' W 090°47'0 0.0
2016-Aug-13 18:33N 46°47' W 090°47'  

Dump ship's entire track history